<?xml version="1.0" encoding="UTF-8" standalone="no" ?>
<gpx xmlns="http://www.topografix.com/GPX/1/1" xmlns:xsi="http://www.w3.org/2001/XMLSchema-instance" xsi:schemaLocation="http://www.topografix.com/GPX/1/1 http://www.topografix.com/GPX/1/1/gpx.xsd" version="1.1" creator="VisuGPX - https://www.visugpx.com">
  <metadata>
    <name>Les Gorges du Blavet</name>
  </metadata>
  <wpt lat="43.52868" lon="6.65504">
    <ele>212</ele>
    <name><![CDATA[Paking des Gorges du Blavet]]></name>
  </wpt>
  <wpt lat="43.52812" lon="6.6546">
    <ele>213</ele>
    <name><![CDATA[Prendre le petit sentier tout droit]]></name>
  </wpt>
  <wpt lat="43.52007" lon="6.65434">
    <ele>181</ele>
    <name><![CDATA[Bifurquation]]></name>
  </wpt>
  <wpt lat="43.51896" lon="6.65501">
    <ele>167</ele>
    <name><![CDATA[Le gué]]></name>
  </wpt>
  <wpt lat="43.51864" lon="6.65512">
    <ele>173</ele>
    <name><![CDATA[Le gué]]></name>
  </wpt>
  <wpt lat="43.51763" lon="6.65526">
    <ele>198</ele>
    <name><![CDATA[Les Grottes]]></name>
  </wpt>
  <wpt lat="43.51212" lon="6.65492">
    <ele>102</ele>
    <name><![CDATA[GR51]]></name>
  </wpt>
  <wpt lat="43.51236" lon="6.6561">
    <ele>97</ele>
    <name><![CDATA[Pont]]></name>
  </wpt>
  <wpt lat="43.51203" lon="6.65778">
    <ele>102</ele>
    <name><![CDATA[Prendre à gauche]]></name>
  </wpt>
  <wpt lat="43.51531" lon="6.66535">
    <ele>201</ele>
    <name><![CDATA[Château d'eau]]></name>
  </wpt>
  <wpt lat="43.52808" lon="6.65463">
    <ele>213</ele>
    <name><![CDATA[Paking des Gorges du Blavet]]></name>
  </wpt>
  <trk>
    <name><![CDATA[La Grotte de Mueron et les Gorges du Blavet à Bagnols-en-Forêt,]]></name>
    <trkseg>
      <trkpt lat="43.52868" lon="6.65504">
        <ele>212</ele>
        <time>2021-06-14T15:14:45+02:00</time>
      </trkpt>
      <trkpt lat="43.52878" lon="6.65507">
        <ele>213</ele>
        <time>2021-06-14T15:14:50+02:00</time>
      </trkpt>
      <trkpt lat="43.52875" lon="6.6549">
        <ele>213</ele>
        <time>2021-06-14T15:14:55+02:00</time>
      </trkpt>
      <trkpt lat="43.52812" lon="6.6546">
        <ele>213</ele>
        <time>2021-06-14T15:15:00+02:00</time>
      </trkpt>
      <trkpt lat="43.52675" lon="6.65354">
        <ele>211</ele>
        <time>2021-06-14T15:15:05+02:00</time>
      </trkpt>
      <trkpt lat="43.52636" lon="6.65325">
        <ele>211</ele>
        <time>2021-06-14T15:15:10+02:00</time>
      </trkpt>
      <trkpt lat="43.52614" lon="6.65294">
        <ele>213</ele>
        <time>2021-06-14T15:15:15+02:00</time>
      </trkpt>
      <trkpt lat="43.52603" lon="6.65274">
        <ele>213</ele>
        <time>2021-06-14T15:15:20+02:00</time>
      </trkpt>
      <trkpt lat="43.52589" lon="6.65247">
        <ele>213</ele>
        <time>2021-06-14T15:15:25+02:00</time>
      </trkpt>
      <trkpt lat="43.52569" lon="6.65227">
        <ele>217</ele>
        <time>2021-06-14T15:15:30+02:00</time>
      </trkpt>
      <trkpt lat="43.5254" lon="6.6521">
        <ele>218</ele>
        <time>2021-06-14T15:15:35+02:00</time>
      </trkpt>
      <trkpt lat="43.5251" lon="6.65206">
        <ele>217</ele>
        <time>2021-06-14T15:15:40+02:00</time>
      </trkpt>
      <trkpt lat="43.52471" lon="6.652">
        <ele>214</ele>
        <time>2021-06-14T15:15:45+02:00</time>
      </trkpt>
      <trkpt lat="43.52441" lon="6.65189">
        <ele>211</ele>
        <time>2021-06-14T15:15:50+02:00</time>
      </trkpt>
      <trkpt lat="43.52409" lon="6.65181">
        <ele>207</ele>
        <time>2021-06-14T15:15:55+02:00</time>
      </trkpt>
      <trkpt lat="43.52388" lon="6.6518">
        <ele>207</ele>
        <time>2021-06-14T15:16:00+02:00</time>
      </trkpt>
      <trkpt lat="43.52351" lon="6.6519">
        <ele>206</ele>
        <time>2021-06-14T15:16:05+02:00</time>
      </trkpt>
      <trkpt lat="43.52329" lon="6.65211">
        <ele>204</ele>
        <time>2021-06-14T15:16:10+02:00</time>
      </trkpt>
      <trkpt lat="43.52311" lon="6.65249">
        <ele>201</ele>
        <time>2021-06-14T15:16:15+02:00</time>
      </trkpt>
      <trkpt lat="43.52295" lon="6.65264">
        <ele>203</ele>
        <time>2021-06-14T15:16:20+02:00</time>
      </trkpt>
      <trkpt lat="43.52283" lon="6.65262">
        <ele>203</ele>
        <time>2021-06-14T15:16:25+02:00</time>
      </trkpt>
      <trkpt lat="43.52267" lon="6.65248">
        <ele>202</ele>
        <time>2021-06-14T15:16:30+02:00</time>
      </trkpt>
      <trkpt lat="43.52251" lon="6.65225">
        <ele>201</ele>
        <time>2021-06-14T15:16:35+02:00</time>
      </trkpt>
      <trkpt lat="43.52232" lon="6.652">
        <ele>200</ele>
        <time>2021-06-14T15:16:40+02:00</time>
      </trkpt>
      <trkpt lat="43.52216" lon="6.65163">
        <ele>198</ele>
        <time>2021-06-14T15:16:45+02:00</time>
      </trkpt>
      <trkpt lat="43.52205" lon="6.65143">
        <ele>203</ele>
        <time>2021-06-14T15:16:50+02:00</time>
      </trkpt>
      <trkpt lat="43.52184" lon="6.65129">
        <ele>208</ele>
        <time>2021-06-14T15:16:55+02:00</time>
      </trkpt>
      <trkpt lat="43.52154" lon="6.65136">
        <ele>206</ele>
        <time>2021-06-14T15:17:00+02:00</time>
      </trkpt>
      <trkpt lat="43.52129" lon="6.65156">
        <ele>201</ele>
        <time>2021-06-14T15:17:05+02:00</time>
      </trkpt>
      <trkpt lat="43.521" lon="6.65178">
        <ele>198</ele>
        <time>2021-06-14T15:17:10+02:00</time>
      </trkpt>
      <trkpt lat="43.5207" lon="6.65206">
        <ele>198</ele>
        <time>2021-06-14T15:17:15+02:00</time>
      </trkpt>
      <trkpt lat="43.52053" lon="6.6523">
        <ele>197</ele>
        <time>2021-06-14T15:17:20+02:00</time>
      </trkpt>
      <trkpt lat="43.52034" lon="6.6527">
        <ele>193</ele>
        <time>2021-06-14T15:17:25+02:00</time>
      </trkpt>
      <trkpt lat="43.52027" lon="6.65336">
        <ele>189</ele>
        <time>2021-06-14T15:17:30+02:00</time>
      </trkpt>
      <trkpt lat="43.52024" lon="6.65381">
        <ele>186</ele>
        <time>2021-06-14T15:17:35+02:00</time>
      </trkpt>
      <trkpt lat="43.5202" lon="6.6541">
        <ele>183</ele>
        <time>2021-06-14T15:17:40+02:00</time>
      </trkpt>
      <trkpt lat="43.52007" lon="6.65434">
        <ele>181</ele>
        <time>2021-06-14T15:17:45+02:00</time>
      </trkpt>
      <trkpt lat="43.5198" lon="6.65447">
        <ele>180</ele>
        <time>2021-06-14T15:17:50+02:00</time>
      </trkpt>
      <trkpt lat="43.51949" lon="6.6546">
        <ele>175</ele>
        <time>2021-06-14T15:17:55+02:00</time>
      </trkpt>
      <trkpt lat="43.51914" lon="6.65479">
        <ele>167</ele>
        <time>2021-06-14T15:18:00+02:00</time>
      </trkpt>
      <trkpt lat="43.51896" lon="6.65501">
        <ele>167</ele>
        <time>2021-06-14T15:18:05+02:00</time>
      </trkpt>
      <trkpt lat="43.51883" lon="6.65493">
        <ele>173</ele>
        <time>2021-06-14T15:18:10+02:00</time>
      </trkpt>
      <trkpt lat="43.51864" lon="6.65512">
        <ele>173</ele>
        <time>2021-06-14T15:18:15+02:00</time>
      </trkpt>
      <trkpt lat="43.51807" lon="6.65516">
        <ele>187</ele>
        <time>2021-06-14T15:18:20+02:00</time>
      </trkpt>
      <trkpt lat="43.51763" lon="6.65526">
        <ele>198</ele>
        <time>2021-06-14T15:18:25+02:00</time>
      </trkpt>
      <trkpt lat="43.51735" lon="6.65552">
        <ele>184</ele>
        <time>2021-06-14T15:18:30+02:00</time>
      </trkpt>
      <trkpt lat="43.51709" lon="6.65602">
        <ele>166</ele>
        <time>2021-06-14T15:18:35+02:00</time>
      </trkpt>
      <trkpt lat="43.51672" lon="6.65613">
        <ele>168</ele>
        <time>2021-06-14T15:18:40+02:00</time>
      </trkpt>
      <trkpt lat="43.51652" lon="6.65634">
        <ele>156</ele>
        <time>2021-06-14T15:18:45+02:00</time>
      </trkpt>
      <trkpt lat="43.51637" lon="6.65637">
        <ele>154</ele>
        <time>2021-06-14T15:18:50+02:00</time>
      </trkpt>
      <trkpt lat="43.51615" lon="6.65662">
        <ele>141</ele>
        <time>2021-06-14T15:18:55+02:00</time>
      </trkpt>
      <trkpt lat="43.51573" lon="6.65661">
        <ele>138</ele>
        <time>2021-06-14T15:19:00+02:00</time>
      </trkpt>
      <trkpt lat="43.51531" lon="6.65654">
        <ele>129</ele>
        <time>2021-06-14T15:19:05+02:00</time>
      </trkpt>
      <trkpt lat="43.51436" lon="6.65534">
        <ele>131</ele>
        <time>2021-06-14T15:19:10+02:00</time>
      </trkpt>
      <trkpt lat="43.51408" lon="6.65531">
        <ele>125</ele>
        <time>2021-06-14T15:19:15+02:00</time>
      </trkpt>
      <trkpt lat="43.51372" lon="6.65504">
        <ele>121</ele>
        <time>2021-06-14T15:19:20+02:00</time>
      </trkpt>
      <trkpt lat="43.51352" lon="6.65488">
        <ele>118</ele>
        <time>2021-06-14T15:19:25+02:00</time>
      </trkpt>
      <trkpt lat="43.51345" lon="6.65471">
        <ele>117</ele>
        <time>2021-06-14T15:19:30+02:00</time>
      </trkpt>
      <trkpt lat="43.51316" lon="6.65462">
        <ele>114</ele>
        <time>2021-06-14T15:19:35+02:00</time>
      </trkpt>
      <trkpt lat="43.51302" lon="6.65456">
        <ele>112</ele>
        <time>2021-06-14T15:19:40+02:00</time>
      </trkpt>
      <trkpt lat="43.51278" lon="6.65441">
        <ele>110</ele>
        <time>2021-06-14T15:19:45+02:00</time>
      </trkpt>
      <trkpt lat="43.51208" lon="6.65434">
        <ele>104</ele>
        <time>2021-06-14T15:19:50+02:00</time>
      </trkpt>
      <trkpt lat="43.51212" lon="6.65492">
        <ele>102</ele>
        <time>2021-06-14T15:19:55+02:00</time>
      </trkpt>
      <trkpt lat="43.51236" lon="6.65538">
        <ele>102</ele>
        <time>2021-06-14T15:20:00+02:00</time>
      </trkpt>
      <trkpt lat="43.51236" lon="6.6561">
        <ele>97</ele>
        <time>2021-06-14T15:20:05+02:00</time>
      </trkpt>
      <trkpt lat="43.51225" lon="6.65692">
        <ele>96</ele>
        <time>2021-06-14T15:20:10+02:00</time>
      </trkpt>
      <trkpt lat="43.51212" lon="6.65761">
        <ele>102</ele>
        <time>2021-06-14T15:20:15+02:00</time>
      </trkpt>
      <trkpt lat="43.51203" lon="6.65778">
        <ele>102</ele>
        <time>2021-06-14T15:20:20+02:00</time>
      </trkpt>
      <trkpt lat="43.51299" lon="6.65923">
        <ele>116</ele>
        <time>2021-06-14T15:20:25+02:00</time>
      </trkpt>
      <trkpt lat="43.51293" lon="6.65949">
        <ele>117</ele>
        <time>2021-06-14T15:20:30+02:00</time>
      </trkpt>
      <trkpt lat="43.51281" lon="6.65983">
        <ele>117</ele>
        <time>2021-06-14T15:20:35+02:00</time>
      </trkpt>
      <trkpt lat="43.51281" lon="6.66063">
        <ele>121</ele>
        <time>2021-06-14T15:20:40+02:00</time>
      </trkpt>
      <trkpt lat="43.51282" lon="6.66218">
        <ele>129</ele>
        <time>2021-06-14T15:20:45+02:00</time>
      </trkpt>
      <trkpt lat="43.51263" lon="6.66393">
        <ele>125</ele>
        <time>2021-06-14T15:20:50+02:00</time>
      </trkpt>
      <trkpt lat="43.51275" lon="6.66598">
        <ele>128</ele>
        <time>2021-06-14T15:20:55+02:00</time>
      </trkpt>
      <trkpt lat="43.51299" lon="6.6681">
        <ele>141</ele>
        <time>2021-06-14T15:21:00+02:00</time>
      </trkpt>
      <trkpt lat="43.51313" lon="6.66823">
        <ele>145</ele>
        <time>2021-06-14T15:21:05+02:00</time>
      </trkpt>
      <trkpt lat="43.51334" lon="6.6679">
        <ele>150</ele>
        <time>2021-06-14T15:21:10+02:00</time>
      </trkpt>
      <trkpt lat="43.51372" lon="6.66668">
        <ele>155</ele>
        <time>2021-06-14T15:21:15+02:00</time>
      </trkpt>
      <trkpt lat="43.51394" lon="6.66494">
        <ele>163</ele>
        <time>2021-06-14T15:21:20+02:00</time>
      </trkpt>
      <trkpt lat="43.51484" lon="6.66307">
        <ele>185</ele>
        <time>2021-06-14T15:21:25+02:00</time>
      </trkpt>
      <trkpt lat="43.51494" lon="6.66307">
        <ele>188</ele>
        <time>2021-06-14T15:21:30+02:00</time>
      </trkpt>
      <trkpt lat="43.51501" lon="6.66326">
        <ele>190</ele>
        <time>2021-06-14T15:21:35+02:00</time>
      </trkpt>
      <trkpt lat="43.51493" lon="6.66483">
        <ele>193</ele>
        <time>2021-06-14T15:21:40+02:00</time>
      </trkpt>
      <trkpt lat="43.51514" lon="6.66575">
        <ele>195</ele>
        <time>2021-06-14T15:21:45+02:00</time>
      </trkpt>
      <trkpt lat="43.51529" lon="6.66609">
        <ele>195</ele>
        <time>2021-06-14T15:21:50+02:00</time>
      </trkpt>
      <trkpt lat="43.51542" lon="6.66593">
        <ele>198</ele>
        <time>2021-06-14T15:21:55+02:00</time>
      </trkpt>
      <trkpt lat="43.51531" lon="6.66535">
        <ele>201</ele>
        <time>2021-06-14T15:22:00+02:00</time>
      </trkpt>
      <trkpt lat="43.51618" lon="6.66495">
        <ele>217</ele>
        <time>2021-06-14T15:22:05+02:00</time>
      </trkpt>
      <trkpt lat="43.51636" lon="6.66425">
        <ele>223</ele>
        <time>2021-06-14T15:22:10+02:00</time>
      </trkpt>
      <trkpt lat="43.51688" lon="6.66304">
        <ele>230</ele>
        <time>2021-06-14T15:22:15+02:00</time>
      </trkpt>
      <trkpt lat="43.5174" lon="6.66193">
        <ele>237</ele>
        <time>2021-06-14T15:22:20+02:00</time>
      </trkpt>
      <trkpt lat="43.51765" lon="6.66118">
        <ele>243</ele>
        <time>2021-06-14T15:22:25+02:00</time>
      </trkpt>
      <trkpt lat="43.51774" lon="6.66106">
        <ele>244</ele>
        <time>2021-06-14T15:22:30+02:00</time>
      </trkpt>
      <trkpt lat="43.51763" lon="6.66074">
        <ele>244</ele>
        <time>2021-06-14T15:22:35+02:00</time>
      </trkpt>
      <trkpt lat="43.51774" lon="6.66022">
        <ele>244</ele>
        <time>2021-06-14T15:22:40+02:00</time>
      </trkpt>
      <trkpt lat="43.518" lon="6.65983">
        <ele>247</ele>
        <time>2021-06-14T15:22:45+02:00</time>
      </trkpt>
      <trkpt lat="43.51949" lon="6.65861">
        <ele>260</ele>
        <time>2021-06-14T15:22:50+02:00</time>
      </trkpt>
      <trkpt lat="43.51988" lon="6.65831">
        <ele>261</ele>
        <time>2021-06-14T15:22:55+02:00</time>
      </trkpt>
      <trkpt lat="43.52002" lon="6.65827">
        <ele>261</ele>
        <time>2021-06-14T15:23:00+02:00</time>
      </trkpt>
      <trkpt lat="43.52068" lon="6.65848">
        <ele>268</ele>
        <time>2021-06-14T15:23:05+02:00</time>
      </trkpt>
      <trkpt lat="43.52098" lon="6.65852">
        <ele>270</ele>
        <time>2021-06-14T15:23:10+02:00</time>
      </trkpt>
      <trkpt lat="43.52146" lon="6.6583">
        <ele>263</ele>
        <time>2021-06-14T15:23:15+02:00</time>
      </trkpt>
      <trkpt lat="43.52186" lon="6.65772">
        <ele>259</ele>
        <time>2021-06-14T15:23:20+02:00</time>
      </trkpt>
      <trkpt lat="43.52229" lon="6.65736">
        <ele>252</ele>
        <time>2021-06-14T15:23:25+02:00</time>
      </trkpt>
      <trkpt lat="43.52285" lon="6.65685">
        <ele>245</ele>
        <time>2021-06-14T15:23:30+02:00</time>
      </trkpt>
      <trkpt lat="43.52308" lon="6.6564">
        <ele>239</ele>
        <time>2021-06-14T15:23:35+02:00</time>
      </trkpt>
      <trkpt lat="43.52356" lon="6.65553">
        <ele>231</ele>
        <time>2021-06-14T15:23:40+02:00</time>
      </trkpt>
      <trkpt lat="43.52382" lon="6.65506">
        <ele>229</ele>
        <time>2021-06-14T15:23:45+02:00</time>
      </trkpt>
      <trkpt lat="43.52435" lon="6.65492">
        <ele>229</ele>
        <time>2021-06-14T15:23:50+02:00</time>
      </trkpt>
      <trkpt lat="43.52465" lon="6.65444">
        <ele>224</ele>
        <time>2021-06-14T15:23:55+02:00</time>
      </trkpt>
      <trkpt lat="43.52488" lon="6.65351">
        <ele>219</ele>
        <time>2021-06-14T15:24:00+02:00</time>
      </trkpt>
      <trkpt lat="43.5252" lon="6.65349">
        <ele>217</ele>
        <time>2021-06-14T15:24:05+02:00</time>
      </trkpt>
      <trkpt lat="43.52536" lon="6.65329">
        <ele>215</ele>
        <time>2021-06-14T15:24:10+02:00</time>
      </trkpt>
      <trkpt lat="43.5255" lon="6.65303">
        <ele>213</ele>
        <time>2021-06-14T15:24:15+02:00</time>
      </trkpt>
      <trkpt lat="43.52583" lon="6.65324">
        <ele>212</ele>
        <time>2021-06-14T15:24:20+02:00</time>
      </trkpt>
      <trkpt lat="43.5262" lon="6.65378">
        <ele>212</ele>
        <time>2021-06-14T15:24:25+02:00</time>
      </trkpt>
      <trkpt lat="43.52679" lon="6.65432">
        <ele>212</ele>
        <time>2021-06-14T15:24:30+02:00</time>
      </trkpt>
      <trkpt lat="43.52759" lon="6.6549">
        <ele>213</ele>
        <time>2021-06-14T15:24:35+02:00</time>
      </trkpt>
      <trkpt lat="43.52793" lon="6.65472">
        <ele>212</ele>
        <time>2021-06-14T15:24:40+02:00</time>
      </trkpt>
      <trkpt lat="43.5281" lon="6.65461">
        <ele>213</ele>
        <time>2021-06-14T15:24:45+02:00</time>
      </trkpt>
      <trkpt lat="43.52808" lon="6.65463">
        <ele>213</ele>
        <time>2021-06-14T15:24:50+02:00</time>
      </trkpt>
    </trkseg>
  </trk>
</gpx>